sensor_id;sensor_type;location;lat;lon;timestamp;P1;P2;P0
57798;PMS7003;43626;53.866;30.298;2024-03-22T00:05:25;28.4;22.8;14
57798;PMS7003;43626;53.866;30.298;2024-03-22T00:10:25;24;22.2;13.8
57798;PMS7003;43626;53.866;30.298;2024-03-22T00:15:25;26.2;22.8;13.2
57798;PMS7003;43626;53.866;30.298;2024-03-22T00:20:25;23;21.2;13
57798;PMS7003;43626;53.866;30.298;2024-03-22T00:24:37;23;21.2;13
57798;PMS7003;43626;53.866;30.298;2024-03-22T00:30:13;23.4;21.6;13
57798;PMS7003;43626;53.866;30.298;2024-03-22T00:34:43;23.4;21.6;13
57798;PMS7003;43626;53.866;30.298;2024-03-22T00:39:43;23;21.2;12
57798;PMS7003;43626;53.866;30.298;2024-03-22T00:44:53;25.4;22.6;14.2
57798;PMS7003;43626;53.866;30.298;2024-03-22T00:50:25;25;21.3;13.8
57798;PMS7003;43626;53.866;30.298;2024-03-22T00:54:43;25;21.3;13.8
57798;PMS7003;43626;53.866;30.298;2024-03-22T01:00:25;22.6;19;12
57798;PMS7003;43626;53.866;30.298;2024-03-22T01:05:25;23.2;22;14
57798;PMS7003;43626;53.866;30.298;2024-03-22T01:10:13;23.2;20.4;13.4
57798;PMS7003;43626;53.866;30.298;2024-03-22T01:15:13;24;21.6;13.4
57798;PMS7003;43626;53.866;30.298;2024-03-22T01:19:45;24;21.6;13.4
57798;PMS7003;43626;53.866;30.298;2024-03-22T01:25:25;28;24.8;15.2
57798;PMS7003;43626;53.866;30.298;2024-03-22T01:30:25;24.8;22.2;14.2
57798;PMS7003;43626;53.866;30.298;2024-03-22T01:34:59;24.8;22.2;14.2
57798;PMS7003;43626;53.866;30.298;2024-03-22T01:40:25;26.6;24;16
57798;PMS7003;43626;53.866;30.298;2024-03-22T01:45:25;27.6;22.8;14.8
57798;PMS7003;43626;53.866;30.298;2024-03-22T01:50:11;25.5;22.5;14.5
57798;PMS7003;43626;53.866;30.298;2024-03-22T01:55:25;26;23.2;15.4
57798;PMS7003;43626;53.866;30.298;2024-03-22T01:59:35;26;23.2;15.4
57798;PMS7003;43626;53.866;30.298;2024-03-22T02:04:41;26.6;23.4;15.2
57798;PMS7003;43626;53.866;30.298;2024-03-22T02:09:35;28.6;23.2;15.2
57798;PMS7003;43626;53.866;30.298;2024-03-22T02:14:35;30.2;25.6;16.2
57798;PMS7003;43626;53.866;30.298;2024-03-22T02:20:05;27;23.2;15.2
57798;PMS7003;43626;53.866;30.298;2024-03-22T02:25:07;27.8;24.6;16.6
57798;PMS7003;43626;53.866;30.298;2024-03-22T02:29:35;27.8;24.6;16.6
57798;PMS7003;43626;53.866;30.298;2024-03-22T02:35:25;29.6;25.8;16.6
57798;PMS7003;43626;53.866;30.298;2024-03-22T02:40:11;27.8;25.4;16.2
57798;PMS7003;43626;53.866;30.298;2024-03-22T02:44:45;27.8;25.4;16.2
57798;PMS7003;43626;53.866;30.298;2024-03-22T02:50:13;26.2;23.2;14.4
57798;PMS7003;43626;53.866;30.298;2024-03-22T02:55:07;24.5;20;14.3
57798;PMS7003;43626;53.866;30.298;2024-03-22T03:00:13;23.8;22.2;15
57798;PMS7003;43626;53.866;30.298;2024-03-22T03:05:07;24;20.8;14.2
57798;PMS7003;43626;53.866;30.298;2024-03-22T03:10:13;24;19.8;14.6
57798;PMS7003;43626;53.866;30.298;2024-03-22T03:15:11;23;20;13.4
57798;PMS7003;43626;53.866;30.298;2024-03-22T03:20:25;24.6;21.4;13.8
57798;PMS7003;43626;53.866;30.298;2024-03-22T03:24:59;24.6;21.4;13.8
57798;PMS7003;43626;53.866;30.298;2024-03-22T03:30:01;26.2;23.2;15.2
57798;PMS7003;43626;53.866;30.298;2024-03-22T03:34:36;27;22.8;14.6
57798;PMS7003;43626;53.866;30.298;2024-03-22T03:40:13;26.6;24.6;17.2
57798;PMS7003;43626;53.866;30.298;2024-03-22T03:44:35;26.6;24.6;17.2
57798;PMS7003;43626;53.866;30.298;2024-03-22T03:49:36;23.8;20.8;14
57798;PMS7003;43626;53.866;30.298;2024-03-22T03:55:26;22.5;21.5;14.5
57798;PMS7003;43626;53.866;30.298;2024-03-22T03:59:43;22.5;21.5;14.5
57798;PMS7003;43626;53.866;30.298;2024-03-22T04:04:53;25.2;22.4;15.4
57798;PMS7003;43626;53.866;30.298;2024-03-22T04:10:25;27.2;24;15.4
57798;PMS7003;43626;53.866;30.298;2024-03-22T04:15:25;23.8;22;13.4
57798;PMS7003;43626;53.866;30.298;2024-03-22T04:20:11;24.6;22.2;15.6
57798;PMS7003;43626;53.866;30.298;2024-03-22T04:25:07;29.8;26.2;17.4
57798;PMS7003;43626;53.866;30.298;2024-03-22T04:30:23;28;25.6;15.4
57798;PMS7003;43626;53.866;30.298;2024-03-22T04:35:13;27.4;25;15.6
57798;PMS7003;43626;53.866;30.298;2024-03-22T04:40:07;29;26.8;17
57798;PMS7003;43626;53.866;30.298;2024-03-22T04:45:25;29.6;25;16.4
57798;PMS7003;43626;53.866;30.298;2024-03-22T04:49:43;29.6;25;16.4
57798;PMS7003;43626;53.866;30.298;2024-03-22T04:55:25;26.8;25;16.5
57798;PMS7003;43626;53.866;30.298;2024-03-22T05:00:11;27.8;23.4;16
57798;PMS7003;43626;53.866;30.298;2024-03-22T05:05:25;27.6;24.6;15.6
57798;PMS7003;43626;53.866;30.298;2024-03-22T05:09:55;27.6;24.6;15.6
57798;PMS7003;43626;53.866;30.298;2024-03-22T05:15:04;29.8;25.6;16.8
57798;PMS7003;43626;53.866;30.298;2024-03-22T05:19:35;31.2;26.8;17.6
57798;PMS7003;43626;53.866;30.298;2024-03-22T05:24:43;34.2;29.2;18.2
57798;PMS7003;43626;53.866;30.298;2024-03-22T05:29:35;36.8;31.8;20.4
57798;PMS7003;43626;53.866;30.298;2024-03-22T05:34:35;45;36;22
57798;PMS7003;43626;53.866;30.298;2024-03-22T05:40:11;56.6;44.6;27.4
57798;PMS7003;43626;53.866;30.298;2024-03-22T05:45:25;58.4;45.8;28.2
57798;PMS7003;43626;53.866;30.298;2024-03-22T05:50:23;58.6;46.6;28.2
57798;PMS7003;43626;53.866;30.298;2024-03-22T05:54:35;58.6;46.6;28.2
57798;PMS7003;43626;53.866;30.298;2024-03-22T06:00:07;55;42.4;26.8
57798;PMS7003;43626;53.866;30.298;2024-03-22T06:05:23;52;41.6;25.4
57798;PMS7003;43626;53.866;30.298;2024-03-22T06:10:13;50;39.6;25
57798;PMS7003;43626;53.866;30.298;2024-03-22T06:14:55;50;39.6;25
57798;PMS7003;43626;53.866;30.298;2024-03-22T06:19:59;53;41;25
57798;PMS7003;43626;53.866;30.298;2024-03-22T06:25:01;55.4;42;25.8
57798;PMS7003;43626;53.866;30.298;2024-03-22T06:30:25;56.2;43.4;26.6
57798;PMS7003;43626;53.866;30.298;2024-03-22T06:34:35;56.2;43.4;26.6
57798;PMS7003;43626;53.866;30.298;2024-03-22T06:40:25;54.2;43.2;26
57798;PMS7003;43626;53.866;30.298;2024-03-22T06:44:51;54.2;43.2;26
57798;PMS7003;43626;53.866;30.298;2024-03-22T06:50:25;48.4;37.6;23.6
57798;PMS7003;43626;53.866;30.298;2024-03-22T06:54:35;48.4;37.6;23.6
57798;PMS7003;43626;53.866;30.298;2024-03-22T06:59:35;50.8;39;23.5
57798;PMS7003;43626;53.866;30.298;2024-03-22T07:04:59;51.6;40.2;24.4
57798;PMS7003;43626;53.866;30.298;2024-03-22T07:09:35;49.2;39.2;24
57798;PMS7003;43626;53.866;30.298;2024-03-22T07:14:55;44.6;35;21.4
57798;PMS7003;43626;53.866;30.298;2024-03-22T07:20:11;44.6;35.2;21.6
57798;PMS7003;43626;53.866;30.298;2024-03-22T07:25:05;44.8;35;21.4
57798;PMS7003;43626;53.866;30.298;2024-03-22T07:30:07;42;34;20.8
57798;PMS7003;43626;53.866;30.298;2024-03-22T07:35:25;39.6;32.8;20.6
57798;PMS7003;43626;53.866;30.298;2024-03-22T07:40:11;42.4;33.4;20.4
57798;PMS7003;43626;53.866;30.298;2024-03-22T07:44:37;42.4;33.4;20.4
57798;PMS7003;43626;53.866;30.298;2024-03-22T07:49:43;49.2;38.2;23.2
57798;PMS7003;43626;53.866;30.298;2024-03-22T07:54:46;51.8;41.6;24.8
57798;PMS7003;43626;53.866;30.298;2024-03-22T08:00:25;45;36.5;21
57798;PMS7003;43626;53.866;30.298;2024-03-22T08:05:25;42.8;33.4;18.6
57798;PMS7003;43626;53.866;30.298;2024-03-22T08:09:59;42.8;33.4;18.6
57798;PMS7003;43626;53.866;30.298;2024-03-22T08:15:25;33.4;28.6;17.2
57798;PMS7003;43626;53.866;30.298;2024-03-22T08:20:25;33.2;28.2;16.8
57798;PMS7003;43626;53.866;30.298;2024-03-22T08:25:11;37.2;30.2;18
57798;PMS7003;43626;53.866;30.298;2024-03-22T08:30:13;42;33;19.4
57798;PMS7003;43626;53.866;30.298;2024-03-22T08:34:35;42;33;19.4
57798;PMS7003;43626;53.866;30.298;2024-03-22T08:39:53;37.2;30;17.6
57798;PMS7003;43626;53.866;30.298;2024-03-22T08:44:49;25.2;21.6;12.8
57798;PMS7003;43626;53.866;30.298;2024-03-22T08:49:55;22;18.4;10.6
57798;PMS7003;43626;53.866;30.298;2024-03-22T08:54:57;24;20;12
57798;PMS7003;43626;53.866;30.298;2024-03-22T09:00:27;25.8;21;11.8
57798;PMS7003;43626;53.866;30.298;2024-03-22T09:04:35;25.8;21;11.8
57798;PMS7003;43626;53.866;30.298;2024-03-22T09:10:27;30.2;25.8;15
57798;PMS7003;43626;53.866;30.298;2024-03-22T09:15:13;29.4;24.6;14.8
57798;PMS7003;43626;53.866;30.298;2024-03-22T09:19:36;29.4;24.6;14.8
57798;PMS7003;43626;53.866;30.298;2024-03-22T09:24:57;29.8;23.8;13.8
57798;PMS7003;43626;53.866;30.298;2024-03-22T09:30:08;29.8;26.2;15.8
57798;PMS7003;43626;53.866;30.298;2024-03-22T09:34:37;29.8;26.2;15.8
57798;PMS7003;43626;53.866;30.298;2024-03-22T09:39:35;32.8;26;14.8
57798;PMS7003;43626;53.866;30.298;2024-03-22T09:45:15;27.2;21.8;12.2
57798;PMS7003;43626;53.866;30.298;2024-03-22T09:50:13;26.8;23.4;13
57798;PMS7003;43626;53.866;30.298;2024-03-22T09:55:27;30.8;24.2;13
57798;PMS7003;43626;53.866;30.298;2024-03-22T10:00:08;25.3;21.8;11.8
57798;PMS7003;43626;53.866;30.298;2024-03-22T10:05:16;31.2;24;13.6
57798;PMS7003;43626;53.866;30.298;2024-03-22T10:10:01;31.2;24;13.6
57798;PMS7003;43626;53.866;30.298;2024-03-22T10:14:43;25.2;21.8;12.4
57798;PMS7003;43626;53.866;30.298;2024-03-22T10:19:43;23;20.2;12
57798;PMS7003;43626;53.866;30.298;2024-03-22T10:24:55;25.4;21.6;12.4
57798;PMS7003;43626;53.866;30.298;2024-03-22T10:29:36;22.6;20.4;11.8
57798;PMS7003;43626;53.866;30.298;2024-03-22T10:35:08;25;21.4;13.2
57798;PMS7003;43626;53.866;30.298;2024-03-22T10:40:08;23.6;19;10.4
57798;PMS7003;43626;53.866;30.298;2024-03-22T10:45:27;20;17.4;10.2
57798;PMS7003;43626;53.866;30.298;2024-03-22T10:49:37;20;17.4;10.2
57798;PMS7003;43626;53.866;30.298;2024-03-22T10:54:37;19.2;17.2;9.8
57798;PMS7003;43626;53.866;30.298;2024-03-22T10:59:56;20.6;17.4;9.6
57798;PMS7003;43626;53.866;30.298;2024-03-22T11:05:07;23;20;11.2
57798;PMS7003;43626;53.866;30.298;2024-03-22T11:09:51;23;20;11.2
57798;PMS7003;43626;53.866;30.298;2024-03-22T11:14:55;21;17.8;10.6
57798;PMS7003;43626;53.866;30.298;2024-03-22T11:20:04;22.6;18.8;11.2
57798;PMS7003;43626;53.866;30.298;2024-03-22T11:25:13;24.6;20.2;12.8
57798;PMS7003;43626;53.866;30.298;2024-03-22T11:30:28;27;23.4;12.8
57798;PMS7003;43626;53.866;30.298;2024-03-22T11:34:36;27;23.4;12.8
57798;PMS7003;43626;53.866;30.298;2024-03-22T11:39:37;29.4;25;14
57798;PMS7003;43626;53.866;30.298;2024-03-22T11:44:36;24.2;21.4;13
57798;PMS7003;43626;53.866;30.298;2024-03-22T11:49:55;29.2;24.4;13.6
57798;PMS7003;43626;53.866;30.298;2024-03-22T11:54:35;27.6;24;13.6
57798;PMS7003;43626;53.866;30.298;2024-03-22T11:59:44;30.2;25.8;14.8
57798;PMS7003;43626;53.866;30.298;2024-03-22T12:04:35;35;29;16
57798;PMS7003;43626;53.866;30.298;2024-03-22T12:09:44;29.6;26;15.2
57798;PMS7003;43626;53.866;30.298;2024-03-22T12:15:14;37;29;16
57798;PMS7003;43626;53.866;30.298;2024-03-22T12:20:28;31.4;27.4;16.4
57798;PMS7003;43626;53.866;30.298;2024-03-22T12:25:28;29;26;15
57798;PMS7003;43626;53.866;30.298;2024-03-22T12:29:46;29;26;15
57798;PMS7003;43626;53.866;30.298;2024-03-22T12:35:08;33.4;28.4;16.8
57798;PMS7003;43626;53.866;30.298;2024-03-22T12:40:28;36.2;29.8;17.2
57798;PMS7003;43626;53.866;30.298;2024-03-22T12:44:58;36.2;29.8;17.2
57798;PMS7003;43626;53.866;30.298;2024-03-22T12:49:56;31.4;27.6;17.6
57798;PMS7003;43626;53.866;30.298;2024-03-22T12:55:08;34.8;29.2;17
57798;PMS7003;43626;53.866;30.298;2024-03-22T12:59:48;34.8;29.2;17
57798;PMS7003;43626;53.866;30.298;2024-03-22T13:05:28;32.8;28.5;16.5
57798;PMS7003;43626;53.866;30.298;2024-03-22T13:10:02;32.8;28.5;16.5
57798;PMS7003;43626;53.866;30.298;2024-03-22T13:15:28;36.8;30.2;17.6
57798;PMS7003;43626;53.866;30.298;2024-03-22T13:19:36;36.8;30.2;17.6
57798;PMS7003;43626;53.866;30.298;2024-03-22T13:25:14;40;31.8;18.2
57798;PMS7003;43626;53.866;30.298;2024-03-22T13:30:16;37.8;30.6;18
57798;PMS7003;43626;53.866;30.298;2024-03-22T13:34:36;37.8;30.6;18
57798;PMS7003;43626;53.866;30.298;2024-03-22T13:39:36;38.8;30.2;17
57798;PMS7003;43626;53.866;30.298;2024-03-22T13:44:44;40.4;31.4;18.2
57798;PMS7003;43626;53.866;30.298;2024-03-22T13:49:46;40.4;32.2;18
57798;PMS7003;43626;53.866;30.298;2024-03-22T13:54:54;42.4;32.6;19.2
57798;PMS7003;43626;53.866;30.298;2024-03-22T14:00:26;39.2;32;17.2
57798;PMS7003;43626;53.866;30.298;2024-03-22T14:04:54;39.2;32;17.2
57798;PMS7003;43626;53.866;30.298;2024-03-22T14:10:16;34.6;28.4;16
57798;PMS7003;43626;53.866;30.298;2024-03-22T14:15:14;34.8;28.4;15.8
57798;PMS7003;43626;53.866;30.298;2024-03-22T14:19:56;34.8;28.4;15.8
57798;PMS7003;43626;53.866;30.298;2024-03-22T14:24:56;28.6;24.8;14
57798;PMS7003;43626;53.866;30.298;2024-03-22T14:29:58;30.4;26.6;15
57798;PMS7003;43626;53.866;30.298;2024-03-22T14:35:26;33.4;27.8;15.4
57798;PMS7003;43626;53.866;30.298;2024-03-22T14:40:26;39;31.8;19
57798;PMS7003;43626;53.866;30.298;2024-03-22T14:45:06;32.2;27;15
57798;PMS7003;43626;53.866;30.298;2024-03-22T14:50:26;36.2;28.4;16.2
57798;PMS7003;43626;53.866;30.298;2024-03-22T14:55:26;30;26.6;16.2
57798;PMS7003;43626;53.866;30.298;2024-03-22T15:00:26;27.2;24.2;14.6
57798;PMS7003;43626;53.866;30.298;2024-03-22T15:04:36;27.2;24.2;14.6
57798;PMS7003;43626;53.866;30.298;2024-03-22T15:09:36;30.3;25;14.8
57798;PMS7003;43626;53.866;30.298;2024-03-22T15:14:36;27.4;25.2;15.4
57798;PMS7003;43626;53.866;30.298;2024-03-22T15:19:54;31.8;27.8;16.2
57798;PMS7003;43626;53.866;30.298;2024-03-22T15:24:44;36.6;31.2;18.6
57798;PMS7003;43626;53.866;30.298;2024-03-22T15:29:36;35.2;29.6;17.8
57798;PMS7003;43626;53.866;30.298;2024-03-22T15:35:26;36.6;31.4;19.4
57798;PMS7003;43626;53.866;30.298;2024-03-22T15:39:54;36.6;31.4;19.4
57798;PMS7003;43626;53.866;30.298;2024-03-22T15:45:06;51.8;38.2;22.2
57798;PMS7003;43626;53.866;30.298;2024-03-22T15:50:28;53.4;42;24.4
57798;PMS7003;43626;53.866;30.298;2024-03-22T15:55:16;48.6;36;22
57798;PMS7003;43626;53.866;30.298;2024-03-22T16:00:04;48.6;36;22
57798;PMS7003;43626;53.866;30.298;2024-03-22T16:04:58;51.8;39;21.6
57798;PMS7003;43626;53.866;30.298;2024-03-22T16:10:08;54;41.8;24.6
57798;PMS7003;43626;53.866;30.298;2024-03-22T16:15:26;50.6;39.4;23.4
57798;PMS7003;43626;53.866;30.298;2024-03-22T16:19:36;50.6;39.4;23.4
57798;PMS7003;43626;53.866;30.298;2024-03-22T16:25:26;65.8;48;26.4
57798;PMS7003;43626;53.866;30.298;2024-03-22T16:30:08;62.6;46.2;24.2
57798;PMS7003;43626;53.866;30.298;2024-03-22T16:35:14;47.2;36.4;21.2
57798;PMS7003;43626;53.866;30.298;2024-03-22T16:40:28;39.8;31;18.4
57798;PMS7003;43626;53.866;30.298;2024-03-22T16:44:36;39.8;31;18.4
57798;PMS7003;43626;53.866;30.298;2024-03-22T16:49:44;39.4;31.6;19.2
57798;PMS7003;43626;53.866;30.298;2024-03-22T16:54:58;34.8;28;16.8
57798;PMS7003;43626;53.866;30.298;2024-03-22T16:59:54;35;29.8;18.2
57798;PMS7003;43626;53.866;30.298;2024-03-22T17:04:44;34;28.2;16.6
57798;PMS7003;43626;53.866;30.298;2024-03-22T17:10:06;40.6;32.6;19.2
57798;PMS7003;43626;53.866;30.298;2024-03-22T17:14:46;40.6;32.6;19.2
57798;PMS7003;43626;53.866;30.298;2024-03-22T17:20:26;51.4;38.2;21
57798;PMS7003;43626;53.866;30.298;2024-03-22T17:25:26;45.4;36.2;21
57798;PMS7003;43626;53.866;30.298;2024-03-22T17:30:06;45.6;35.4;20.2
57798;PMS7003;43626;53.866;30.298;2024-03-22T17:34:46;45.6;35.4;20.2
57798;PMS7003;43626;53.866;30.298;2024-03-22T17:40:06;44.4;33.4;20.2
57798;PMS7003;43626;53.866;30.298;2024-03-22T17:45:14;45.8;35;21
57798;PMS7003;43626;53.866;30.298;2024-03-22T17:49:46;45.8;35;21
57798;PMS7003;43626;53.866;30.298;2024-03-22T17:55:28;38.4;32.4;19.2
57798;PMS7003;43626;53.866;30.298;2024-03-22T18:00:14;42.8;32.8;19
57798;PMS7003;43626;53.866;30.298;2024-03-22T18:05:28;43;32.6;18.6
57798;PMS7003;43626;53.866;30.298;2024-03-22T18:09:56;43;32.6;18.6
57798;PMS7003;43626;53.866;30.298;2024-03-22T18:15:10;41.8;32.8;19.4
57798;PMS7003;43626;53.866;30.298;2024-03-22T18:20:02;41.8;32.8;19.4
57798;PMS7003;43626;53.866;30.298;2024-03-22T18:24:48;41.6;31.8;19.2
57798;PMS7003;43626;53.866;30.298;2024-03-22T18:30:02;39.4;32.6;18.8
57798;PMS7003;43626;53.866;30.298;2024-03-22T18:34:37;39.6;32.4;19
57798;PMS7003;43626;53.866;30.298;2024-03-22T18:39:58;38;31.4;19
57798;PMS7003;43626;53.866;30.298;2024-03-22T18:44:54;40.6;32.8;18.2
57798;PMS7003;43626;53.866;30.298;2024-03-22T18:50:14;39.8;32.4;19.2
57798;PMS7003;43626;53.866;30.298;2024-03-22T18:55:28;42.6;33.4;19.6
57798;PMS7003;43626;53.866;30.298;2024-03-22T19:00:28;40.6;31.8;18
57798;PMS7003;43626;53.866;30.298;2024-03-22T19:04:54;40.6;31.8;18
57798;PMS7003;43626;53.866;30.298;2024-03-22T19:10:08;39.3;30.8;17.3
57798;PMS7003;43626;53.866;30.298;2024-03-22T19:15:28;38.6;31.4;18
57798;PMS7003;43626;53.866;30.298;2024-03-22T19:20:16;40.4;30.8;18
57798;PMS7003;43626;53.866;30.298;2024-03-22T19:24:36;40.4;30.8;18
57798;PMS7003;43626;53.866;30.298;2024-03-22T19:29:56;40.4;31.6;18.8
57798;PMS7003;43626;53.866;30.298;2024-03-22T19:34:56;39.8;32;17.8
57798;PMS7003;43626;53.866;30.298;2024-03-22T19:40:28;41.6;32.8;18.6
57798;PMS7003;43626;53.866;30.298;2024-03-22T19:45:02;41.6;32.8;18.6
57798;PMS7003;43626;53.866;30.298;2024-03-22T19:49:58;45.2;35.4;20.8
57798;PMS7003;43626;53.866;30.298;2024-03-22T19:54:36;58.8;42.4;22.4
57798;PMS7003;43626;53.866;30.298;2024-03-22T19:59:48;54.8;40.4;21.4
57798;PMS7003;43626;53.866;30.298;2024-03-22T20:05:08;41.6;32.6;18.8
57798;PMS7003;43626;53.866;30.298;2024-03-22T20:09:48;41.6;32.6;18.8
57798;PMS7003;43626;53.866;30.298;2024-03-22T20:15:02;37.8;31.3;18.3
57798;PMS7003;43626;53.866;30.298;2024-03-22T20:19:36;38.4;32;18
57798;PMS7003;43626;53.866;30.298;2024-03-22T20:25:06;38.8;29.8;15.6
57798;PMS7003;43626;53.866;30.298;2024-03-22T20:30:28;38.6;30.4;16.8
57798;PMS7003;43626;53.866;30.298;2024-03-22T20:35:28;37;29.6;17.2
